sensor_id;sensor_type;location;lat;lon;timestamp;P1;durP1;ratioP1;P2;durP2;ratioP2
77531;SDS011;70100;44.486;0.266;2023-08-24T00:01:04;9.30;;;4.83;;
77531;SDS011;70100;44.486;0.266;2023-08-24T00:06:36;6.37;;;4.90;;
77531;SDS011;70100;44.486;0.266;2023-08-24T00:12:09;7.57;;;4.27;;
77531;SDS011;70100;44.486;0.266;2023-08-24T00:17:41;7.43;;;4.90;;
77531;SDS011;70100;44.486;0.266;2023-08-24T00:23:14;7.33;;;4.47;;
77531;SDS011;70100;44.486;0.266;2023-08-24T00:28:46;5.93;;;4.27;;
77531;SDS011;70100;44.486;0.266;2023-08-24T00:34:19;6.37;;;5.47;;
77531;SDS011;70100;44.486;0.266;2023-08-24T00:39:52;5.53;;;4.93;;
77531;SDS011;70100;44.486;0.266;2023-08-24T00:45:26;9.70;;;5.67;;
77531;SDS011;70100;44.486;0.266;2023-08-24T00:50:59;6.57;;;4.33;;
77531;SDS011;70100;44.486;0.266;2023-08-24T00:56:32;8.53;;;4.87;;
77531;SDS011;70100;44.486;0.266;2023-08-24T01:02:05;7.47;;;4.97;;
77531;SDS011;70100;44.486;0.266;2023-08-24T01:07:38;8.03;;;5.37;;
77531;SDS011;70100;44.486;0.266;2023-08-24T01:13:10;8.50;;;6.30;;
77531;SDS011;70100;44.486;0.266;2023-08-24T01:18:43;8.30;;;5.40;;
77531;SDS011;70100;44.486;0.266;2023-08-24T01:24:17;5.53;;;4.67;;
77531;SDS011;70100;44.486;0.266;2023-08-24T01:29:48;7.90;;;4.93;;
77531;SDS011;70100;44.486;0.266;2023-08-24T01:35:20;7.40;;;5.10;;
77531;SDS011;70100;44.486;0.266;2023-08-24T01:40:55;9.67;;;4.63;;
77531;SDS011;70100;44.486;0.266;2023-08-24T01:46:25;6.83;;;4.53;;
77531;SDS011;70100;44.486;0.266;2023-08-24T01:51:57;5.70;;;4.07;;
77531;SDS011;70100;44.486;0.266;2023-08-24T01:57:30;7.10;;;4.20;;
77531;SDS011;70100;44.486;0.266;2023-08-24T02:03:02;7.23;;;4.90;;
77531;SDS011;70100;44.486;0.266;2023-08-24T02:08:35;6.17;;;4.63;;
77531;SDS011;70100;44.486;0.266;2023-08-24T02:14:07;8.43;;;4.40;;
77531;SDS011;70100;44.486;0.266;2023-08-24T02:19:41;8.20;;;4.93;;
77531;SDS011;70100;44.486;0.266;2023-08-24T02:25:13;6.37;;;4.77;;
77531;SDS011;70100;44.486;0.266;2023-08-24T02:30:44;7.30;;;5.20;;
77531;SDS011;70100;44.486;0.266;2023-08-24T02:36:18;9.47;;;4.67;;
77531;SDS011;70100;44.486;0.266;2023-08-24T02:41:50;7.50;;;4.40;;
77531;SDS011;70100;44.486;0.266;2023-08-24T02:47:22;6.90;;;4.20;;
77531;SDS011;70100;44.486;0.266;2023-08-24T02:52:55;5.73;;;4.07;;
77531;SDS011;70100;44.486;0.266;2023-08-24T02:58:28;4.77;;;4.10;;
77531;SDS011;70100;44.486;0.266;2023-08-24T03:04:01;8.00;;;4.73;;
77531;SDS011;70100;44.486;0.266;2023-08-24T03:09:34;7.30;;;4.60;;
77531;SDS011;70100;44.486;0.266;2023-08-24T03:15:06;8.00;;;4.23;;
77531;SDS011;70100;44.486;0.266;2023-08-24T03:20:38;5.40;;;4.87;;
77531;SDS011;70100;44.486;0.266;2023-08-24T03:26:10;7.13;;;5.13;;
77531;SDS011;70100;44.486;0.266;2023-08-24T03:31:43;6.90;;;5.93;;
77531;SDS011;70100;44.486;0.266;2023-08-24T03:37:15;12.20;;;5.70;;
77531;SDS011;70100;44.486;0.266;2023-08-24T03:42:48;8.33;;;5.10;;
77531;SDS011;70100;44.486;0.266;2023-08-24T03:48:19;6.63;;;5.40;;
77531;SDS011;70100;44.486;0.266;2023-08-24T03:53:52;7.73;;;5.77;;
77531;SDS011;70100;44.486;0.266;2023-08-24T03:59:25;11.70;;;6.07;;
77531;SDS011;70100;44.486;0.266;2023-08-24T04:04:58;12.67;;;5.70;;
77531;SDS011;70100;44.486;0.266;2023-08-24T04:10:29;9.43;;;6.13;;
77531;SDS011;70100;44.486;0.266;2023-08-24T04:16:01;9.93;;;6.23;;
77531;SDS011;70100;44.486;0.266;2023-08-24T04:21:35;10.17;;;6.20;;
77531;SDS011;70100;44.486;0.266;2023-08-24T04:27:08;11.93;;;6.13;;
77531;SDS011;70100;44.486;0.266;2023-08-24T04:32:40;7.93;;;5.83;;
77531;SDS011;70100;44.486;0.266;2023-08-24T04:38:13;6.57;;;5.23;;
77531;SDS011;70100;44.486;0.266;2023-08-24T04:43:45;6.87;;;4.77;;
77531;SDS011;70100;44.486;0.266;2023-08-24T04:49:18;10.27;;;5.20;;
77531;SDS011;70100;44.486;0.266;2023-08-24T04:54:50;4.60;;;3.73;;
77531;SDS011;70100;44.486;0.266;2023-08-24T05:00:24;7.67;;;4.00;;
77531;SDS011;70100;44.486;0.266;2023-08-24T05:05:56;4.93;;;3.70;;
77531;SDS011;70100;44.486;0.266;2023-08-24T05:11:29;5.53;;;4.73;;
77531;SDS011;70100;44.486;0.266;2023-08-24T05:17:00;9.50;;;4.13;;
77531;SDS011;70100;44.486;0.266;2023-08-24T05:22:33;4.80;;;4.03;;
77531;SDS011;70100;44.486;0.266;2023-08-24T05:28:05;5.80;;;3.43;;
77531;SDS011;70100;44.486;0.266;2023-08-24T05:33:39;7.53;;;3.93;;
77531;SDS011;70100;44.486;0.266;2023-08-24T05:39:11;5.47;;;3.90;;
77531;SDS011;70100;44.486;0.266;2023-08-24T05:44:43;10.43;;;3.90;;
77531;SDS011;70100;44.486;0.266;2023-08-24T05:50:16;5.33;;;4.10;;
77531;SDS011;70100;44.486;0.266;2023-08-24T05:55:49;7.13;;;4.20;;
77531;SDS011;70100;44.486;0.266;2023-08-24T06:01:22;5.87;;;3.93;;
77531;SDS011;70100;44.486;0.266;2023-08-24T06:06:55;7.90;;;4.97;;
77531;SDS011;70100;44.486;0.266;2023-08-24T06:12:28;10.67;;;6.03;;
77531;SDS011;70100;44.486;0.266;2023-08-24T06:18:01;8.23;;;4.70;;
77531;SDS011;70100;44.486;0.266;2023-08-24T06:23:34;12.13;;;5.40;;
77531;SDS011;70100;44.486;0.266;2023-08-24T06:29:06;13.80;;;5.83;;
77531;SDS011;70100;44.486;0.266;2023-08-24T06:34:39;14.03;;;6.03;;
77531;SDS011;70100;44.486;0.266;2023-08-24T06:40:11;10.93;;;6.73;;
77531;SDS011;70100;44.486;0.266;2023-08-24T06:45:45;9.17;;;6.60;;
77531;SDS011;70100;44.486;0.266;2023-08-24T06:51:17;9.57;;;6.43;;
77531;SDS011;70100;44.486;0.266;2023-08-24T07:02:21;12.87;;;7.37;;
77531;SDS011;70100;44.486;0.266;2023-08-24T07:07:55;8.47;;;5.73;;
77531;SDS011;70100;44.486;0.266;2023-08-24T07:13:28;6.93;;;5.03;;
77531;SDS011;70100;44.486;0.266;2023-08-24T07:19:02;7.17;;;4.43;;
77531;SDS011;70100;44.486;0.266;2023-08-24T07:24:34;9.97;;;5.93;;
77531;SDS011;70100;44.486;0.266;2023-08-24T07:30:08;11.97;;;5.77;;
77531;SDS011;70100;44.486;0.266;2023-08-24T07:35:39;10.90;;;5.50;;
77531;SDS011;70100;44.486;0.266;2023-08-24T07:41:13;10.83;;;5.27;;
77531;SDS011;70100;44.486;0.266;2023-08-24T07:46:46;12.57;;;5.77;;
77531;SDS011;70100;44.486;0.266;2023-08-24T07:52:18;9.73;;;5.60;;
77531;SDS011;70100;44.486;0.266;2023-08-24T07:57:50;6.63;;;5.57;;
77531;SDS011;70100;44.486;0.266;2023-08-24T08:03:23;9.47;;;5.40;;
77531;SDS011;70100;44.486;0.266;2023-08-24T08:08:57;6.87;;;4.70;;
77531;SDS011;70100;44.486;0.266;2023-08-24T08:14:29;7.03;;;3.93;;
77531;SDS011;70100;44.486;0.266;2023-08-24T08:20:03;7.43;;;4.33;;
77531;SDS011;70100;44.486;0.266;2023-08-24T08:25:36;6.80;;;4.50;;
77531;SDS011;70100;44.486;0.266;2023-08-24T08:31:08;6.30;;;4.23;;
77531;SDS011;70100;44.486;0.266;2023-08-24T08:36:41;6.83;;;4.80;;
77531;SDS011;70100;44.486;0.266;2023-08-24T08:42:14;6.17;;;4.17;;
77531;SDS011;70100;44.486;0.266;2023-08-24T08:47:47;8.17;;;4.50;;
77531;SDS011;70100;44.486;0.266;2023-08-24T08:53:21;7.13;;;5.17;;
77531;SDS011;70100;44.486;0.266;2023-08-24T08:58:53;7.43;;;6.40;;
77531;SDS011;70100;44.486;0.266;2023-08-24T09:04:25;11.53;;;4.73;;
77531;SDS011;70100;44.486;0.266;2023-08-24T09:09:56;9.97;;;4.20;;
77531;SDS011;70100;44.486;0.266;2023-08-24T09:15:32;6.70;;;4.57;;
77531;SDS011;70100;44.486;0.266;2023-08-24T09:21:11;9.37;;;4.63;;
77531;SDS011;70100;44.486;0.266;2023-08-24T09:26:37;9.93;;;5.27;;
77531;SDS011;70100;44.486;0.266;2023-08-24T09:32:09;6.63;;;5.20;;
77531;SDS011;70100;44.486;0.266;2023-08-24T09:37:46;6.03;;;4.33;;
77531;SDS011;70100;44.486;0.266;2023-08-24T09:43:14;5.73;;;5.07;;
77531;SDS011;70100;44.486;0.266;2023-08-24T09:48:53;7.93;;;5.10;;
77531;SDS011;70100;44.486;0.266;2023-08-24T09:54:20;11.40;;;5.17;;
77531;SDS011;70100;44.486;0.266;2023-08-24T09:59:53;6.13;;;4.93;;
77531;SDS011;70100;44.486;0.266;2023-08-24T10:05:24;6.50;;;4.30;;
77531;SDS011;70100;44.486;0.266;2023-08-24T10:10:59;8.73;;;4.20;;
77531;SDS011;70100;44.486;0.266;2023-08-24T10:16:29;11.77;;;4.27;;
77531;SDS011;70100;44.486;0.266;2023-08-24T10:22:02;6.93;;;4.63;;
77531;SDS011;70100;44.486;0.266;2023-08-24T10:27:35;6.67;;;4.83;;
77531;SDS011;70100;44.486;0.266;2023-08-24T10:33:08;10.60;;;4.63;;
77531;SDS011;70100;44.486;0.266;2023-08-24T10:38:41;5.00;;;4.03;;
77531;SDS011;70100;44.486;0.266;2023-08-24T10:44:19;6.90;;;4.83;;
77531;SDS011;70100;44.486;0.266;2023-08-24T10:55:23;6.40;;;4.60;;
77531;SDS011;70100;44.486;0.266;2023-08-24T11:00:53;9.77;;;4.03;;
77531;SDS011;70100;44.486;0.266;2023-08-24T11:06:26;5.77;;;4.13;;
77531;SDS011;70100;44.486;0.266;2023-08-24T11:11:59;4.90;;;4.40;;
77531;SDS011;70100;44.486;0.266;2023-08-24T11:17:32;8.33;;;4.57;;
77531;SDS011;70100;44.486;0.266;2023-08-24T11:23:04;8.87;;;4.60;;
77531;SDS011;70100;44.486;0.266;2023-08-24T11:28:37;5.80;;;4.33;;
77531;SDS011;70100;44.486;0.266;2023-08-24T11:34:14;7.23;;;4.93;;
77531;SDS011;70100;44.486;0.266;2023-08-24T11:39:45;7.23;;;5.00;;
77531;SDS011;70100;44.486;0.266;2023-08-24T11:45:15;9.13;;;5.43;;
77531;SDS011;70100;44.486;0.266;2023-08-24T11:50:49;5.40;;;4.63;;
77531;SDS011;70100;44.486;0.266;2023-08-24T11:56:22;6.57;;;4.40;;
77531;SDS011;70100;44.486;0.266;2023-08-24T12:01:56;7.07;;;4.77;;
77531;SDS011;70100;44.486;0.266;2023-08-24T12:07:29;7.93;;;4.97;;
77531;SDS011;70100;44.486;0.266;2023-08-24T12:13:03;9.57;;;5.70;;
77531;SDS011;70100;44.486;0.266;2023-08-24T12:18:35;6.27;;;4.97;;
77531;SDS011;70100;44.486;0.266;2023-08-24T12:24:07;11.20;;;6.47;;
77531;SDS011;70100;44.486;0.266;2023-08-24T12:29:44;8.83;;;5.23;;
77531;SDS011;70100;44.486;0.266;2023-08-24T12:35:11;8.53;;;6.43;;
77531;SDS011;70100;44.486;0.266;2023-08-24T12:40:44;9.50;;;6.10;;
77531;SDS011;70100;44.486;0.266;2023-08-24T12:46:16;7.53;;;5.53;;
77531;SDS011;70100;44.486;0.266;2023-08-24T12:51:50;8.37;;;5.70;;
77531;SDS011;70100;44.486;0.266;2023-08-24T12:57:23;7.07;;;5.93;;
77531;SDS011;70100;44.486;0.266;2023-08-24T13:02:56;7.00;;;5.90;;
77531;SDS011;70100;44.486;0.266;2023-08-24T13:08:29;12.10;;;7.10;;
77531;SDS011;70100;44.486;0.266;2023-08-24T13:14:01;10.23;;;7.13;;
77531;SDS011;70100;44.486;0.266;2023-08-24T13:19:34;7.17;;;5.87;;
77531;SDS011;70100;44.486;0.266;2023-08-24T13:25:07;8.60;;;6.03;;
77531;SDS011;70100;44.486;0.266;2023-08-24T13:30:41;9.23;;;8.23;;
77531;SDS011;70100;44.486;0.266;2023-08-24T13:36:13;10.33;;;7.07;;
77531;SDS011;70100;44.486;0.266;2023-08-24T13:41:46;9.80;;;6.70;;
77531;SDS011;70100;44.486;0.266;2023-08-24T13:47:22;6.53;;;5.93;;
77531;SDS011;70100;44.486;0.266;2023-08-24T13:52:52;8.17;;;6.20;;
77531;SDS011;70100;44.486;0.266;2023-08-24T13:58:24;7.93;;;6.67;;
77531;SDS011;70100;44.486;0.266;2023-08-24T14:03:58;9.30;;;6.37;;
77531;SDS011;70100;44.486;0.266;2023-08-24T14:09:31;7.70;;;6.40;;
77531;SDS011;70100;44.486;0.266;2023-08-24T14:15:03;6.67;;;5.83;;
77531;SDS011;70100;44.486;0.266;2023-08-24T14:20:36;8.40;;;6.07;;
77531;SDS011;70100;44.486;0.266;2023-08-24T14:26:10;7.30;;;6.57;;
77531;SDS011;70100;44.486;0.266;2023-08-24T14:31:42;11.07;;;6.83;;
77531;SDS011;70100;44.486;0.266;2023-08-24T14:37:14;7.07;;;6.13;;
77531;SDS011;70100;44.486;0.266;2023-08-24T14:42:49;6.17;;;5.27;;
77531;SDS011;70100;44.486;0.266;2023-08-24T14:48:21;8.30;;;5.17;;
77531;SDS011;70100;44.486;0.266;2023-08-24T14:53:54;6.10;;;5.50;;
77531;SDS011;70100;44.486;0.266;2023-08-24T14:59:27;6.57;;;5.23;;
77531;SDS011;70100;44.486;0.266;2023-08-24T15:05:00;6.63;;;4.80;;
77531;SDS011;70100;44.486;0.266;2023-08-24T15:10:31;7.33;;;5.43;;
77531;SDS011;70100;44.486;0.266;2023-08-24T15:16:04;8.43;;;5.13;;
77531;SDS011;70100;44.486;0.266;2023-08-24T15:21:36;7.20;;;5.63;;
77531;SDS011;70100;44.486;0.266;2023-08-24T15:27:07;7.03;;;6.07;;
77531;SDS011;70100;44.486;0.266;2023-08-24T15:32:40;10.10;;;5.70;;
77531;SDS011;70100;44.486;0.266;2023-08-24T15:38:12;6.03;;;4.53;;
77531;SDS011;70100;44.486;0.266;2023-08-24T15:43:44;9.73;;;5.20;;
77531;SDS011;70100;44.486;0.266;2023-08-24T15:49:18;9.43;;;5.73;;
77531;SDS011;70100;44.486;0.266;2023-08-24T15:54:52;7.00;;;4.80;;
77531;SDS011;70100;44.486;0.266;2023-08-24T16:00:25;6.23;;;5.23;;
77531;SDS011;70100;44.486;0.266;2023-08-24T16:05:58;7.30;;;5.20;;
77531;SDS011;70100;44.486;0.266;2023-08-24T16:11:30;5.97;;;4.93;;
77531;SDS011;70100;44.486;0.266;2023-08-24T16:17:02;7.10;;;5.30;;
77531;SDS011;70100;44.486;0.266;2023-08-24T16:22:34;8.50;;;5.80;;
77531;SDS011;70100;44.486;0.266;2023-08-24T16:28:07;6.70;;;5.43;;
77531;SDS011;70100;44.486;0.266;2023-08-24T16:33:41;9.07;;;5.37;;
77531;SDS011;70100;44.486;0.266;2023-08-24T16:39:12;7.10;;;5.77;;
77531;SDS011;70100;44.486;0.266;2023-08-24T16:44:45;7.57;;;5.43;;
77531;SDS011;70100;44.486;0.266;2023-08-24T16:50:18;8.90;;;5.53;;
77531;SDS011;70100;44.486;0.266;2023-08-24T16:55:49;8.03;;;5.70;;
77531;SDS011;70100;44.486;0.266;2023-08-24T17:01:21;8.53;;;5.10;;
77531;SDS011;70100;44.486;0.266;2023-08-24T17:06:54;9.27;;;5.13;;
77531;SDS011;70100;44.486;0.266;2023-08-24T17:12:27;10.30;;;6.00;;
77531;SDS011;70100;44.486;0.266;2023-08-24T17:18:01;6.60;;;5.90;;
77531;SDS011;70100;44.486;0.266;2023-08-24T17:23:34;6.53;;;5.93;;
77531;SDS011;70100;44.486;0.266;2023-08-24T17:29:06;5.97;;;4.87;;
77531;SDS011;70100;44.486;0.266;2023-08-24T17:34:38;6.20;;;5.53;;
77531;SDS011;70100;44.486;0.266;2023-08-24T17:40:13;6.67;;;5.27;;
77531;SDS011;70100;44.486;0.266;2023-08-24T17:45:43;7.07;;;5.73;;
77531;SDS011;70100;44.486;0.266;2023-08-24T17:51:16;8.20;;;6.00;;
77531;SDS011;70100;44.486;0.266;2023-08-24T17:56:48;6.87;;;5.37;;
77531;SDS011;70100;44.486;0.266;2023-08-24T18:02:20;8.50;;;5.87;;
77531;SDS011;70100;44.486;0.266;2023-08-24T18:07:53;8.37;;;5.67;;
77531;SDS011;70100;44.486;0.266;2023-08-24T18:13:26;9.03;;;6.20;;
77531;SDS011;70100;44.486;0.266;2023-08-24T18:18:59;6.33;;;5.40;;
77531;SDS011;70100;44.486;0.266;2023-08-24T18:24:30;8.60;;;5.03;;
77531;SDS011;70100;44.486;0.266;2023-08-24T18:30:03;8.00;;;5.77;;
77531;SDS011;70100;44.486;0.266;2023-08-24T18:35:34;7.50;;;5.53;;
77531;SDS011;70100;44.486;0.266;2023-08-24T18:41:07;10.67;;;5.50;;
77531;SDS011;70100;44.486;0.266;2023-08-24T18:46:39;12.50;;;6.60;;
77531;SDS011;70100;44.486;0.266;2023-08-24T18:52:12;12.13;;;6.30;;
77531;SDS011;70100;44.486;0.266;2023-08-24T18:57:44;7.80;;;5.53;;
77531;SDS011;70100;44.486;0.266;2023-08-24T19:03:16;10.13;;;6.60;;
77531;SDS011;70100;44.486;0.266;2023-08-24T19:08:49;15.67;;;6.20;;
77531;SDS011;70100;44.486;0.266;2023-08-24T19:14:22;11.57;;;7.17;;
77531;SDS011;70100;44.486;0.266;2023-08-24T19:19:56;9.43;;;6.80;;
77531;SDS011;70100;44.486;0.266;2023-08-24T19:25:29;9.90;;;5.83;;
77531;SDS011;70100;44.486;0.266;2023-08-24T19:31:02;15.70;;;5.73;;
77531;SDS011;70100;44.486;0.266;2023-08-24T19:36:35;13.33;;;6.77;;
77531;SDS011;70100;44.486;0.266;2023-08-24T19:42:07;15.40;;;6.33;;
77531;SDS011;70100;44.486;0.266;2023-08-24T19:47:40;14.13;;;6.67;;
77531;SDS011;70100;44.486;0.266;2023-08-24T19:53:14;12.70;;;5.67;;
77531;SDS011;70100;44.486;0.266;2023-08-24T19:58:45;11.53;;;6.37;;
77531;SDS011;70100;44.486;0.266;2023-08-24T20:04:18;17.47;;;7.03;;
77531;SDS011;70100;44.486;0.266;2023-08-24T20:09:49;16.90;;;6.77;;
77531;SDS011;70100;44.486;0.266;2023-08-24T20:15:22;12.93;;;5.37;;
77531;SDS011;70100;44.486;0.266;2023-08-24T20:20:54;12.20;;;5.93;;
77531;SDS011;70100;44.486;0.266;2023-08-24T20:26:27;11.97;;;6.33;;
77531;SDS011;70100;44.486;0.266;2023-08-24T20:31:59;14.40;;;6.10;;
77531;SDS011;70100;44.486;0.266;2023-08-24T20:37:32;13.07;;;6.63;;
77531;SDS011;70100;44.486;0.266;2023-08-24T20:43:03;14.07;;;5.30;;
77531;SDS011;70100;44.486;0.266;2023-08-24T20:48:36;14.53;;;5.73;;
77531;SDS011;70100;44.486;0.266;2023-08-24T20:54:08;15.93;;;6.97;;
77531;SDS011;70100;44.486;0.266;2023-08-24T20:59:42;13.33;;;8.60;;
77531;SDS011;70100;44.486;0.266;2023-08-24T21:05:14;11.00;;;5.70;;
77531;SDS011;70100;44.486;0.266;2023-08-24T21:10:46;16.87;;;9.30;;
77531;SDS011;70100;44.486;0.266;2023-08-24T21:16:19;15.87;;;7.80;;
77531;SDS011;70100;44.486;0.266;2023-08-24T21:21:52;18.57;;;8.77;;
77531;SDS011;70100;44.486;0.266;2023-08-24T21:27:25;20.23;;;8.27;;
77531;SDS011;70100;44.486;0.266;2023-08-24T21:32:58;24.00;;;7.93;;
77531;SDS011;70100;44.486;0.266;2023-08-24T21:38:29;15.30;;;7.50;;
77531;SDS011;70100;44.486;0.266;2023-08-24T21:44:03;19.63;;;7.50;;
77531;SDS011;70100;44.486;0.266;2023-08-24T21:49:36;16.27;;;7.30;;
77531;SDS011;70100;44.486;0.266;2023-08-24T21:55:08;18.43;;;8.93;;
77531;SDS011;70100;44.486;0.266;2023-08-24T22:00:41;12.93;;;6.13;;
77531;SDS011;70100;44.486;0.266;2023-08-24T22:06:14;15.63;;;5.97;;
77531;SDS011;70100;44.486;0.266;2023-08-24T22:11:46;13.77;;;6.30;;
77531;SDS011;70100;44.486;0.266;2023-08-24T22:17:20;13.30;;;5.33;;
77531;SDS011;70100;44.486;0.266;2023-08-24T22:22:53;13.37;;;4.93;;
77531;SDS011;70100;44.486;0.266;2023-08-24T22:28:26;18.90;;;5.30;;
77531;SDS011;70100;44.486;0.266;2023-08-24T22:33:59;16.77;;;5.03;;
77531;SDS011;70100;44.486;0.266;2023-08-24T22:39:31;14.97;;;5.90;;
77531;SDS011;70100;44.486;0.266;2023-08-24T22:45:05;14.53;;;6.03;;
77531;SDS011;70100;44.486;0.266;2023-08-24T22:50:35;19.97;;;5.37;;
77531;SDS011;70100;44.486;0.266;2023-08-24T22:56:08;16.77;;;5.53;;
77531;SDS011;70100;44.486;0.266;2023-08-24T23:01:39;13.87;;;4.83;;
77531;SDS011;70100;44.486;0.266;2023-08-24T23:07:12;13.60;;;5.40;;
77531;SDS011;70100;44.486;0.266;2023-08-24T23:12:45;11.43;;;4.70;;
77531;SDS011;70100;44.486;0.266;2023-08-24T23:18:17;12.03;;;5.23;;
77531;SDS011;70100;44.486;0.266;2023-08-24T23:23:49;11.53;;;7.17;;
77531;SDS011;70100;44.486;0.266;2023-08-24T23:29:21;15.07;;;5.60;;
77531;SDS011;70100;44.486;0.266;2023-08-24T23:34:55;17.70;;;6.00;;
77531;SDS011;70100;44.486;0.266;2023-08-24T23:40:28;12.70;;;6.23;;
77531;SDS011;70100;44.486;0.266;2023-08-24T23:46:01;13.20;;;7.13;;
77531;SDS011;70100;44.486;0.266;2023-08-24T23:51:33;13.80;;;7.37;;
77531;SDS011;70100;44.486;0.266;2023-08-24T23:57:06;15.27;;;7.00;;
